createdAt,value
2023-04-02T00:00:59.074Z,99438.94
2023-04-02T00:03:26.471Z,99440.63
2023-04-02T00:05:56.186Z,99454.13
2023-04-02T00:08:26.838Z,99453.25
2023-04-02T00:10:55.184Z,99449.50
2023-04-02T00:13:25.551Z,99450.47
2023-04-02T00:15:56.966Z,99466.06
2023-04-02T00:18:25.300Z,99465.69
2023-04-02T00:20:54.532Z,99475.91
2023-04-02T00:23:21.776Z,99486.13
2023-04-02T00:25:50.795Z,99492.53
2023-04-02T00:28:19.241Z,99492.50
2023-04-02T00:30:47.739Z,99491.78
2023-04-02T00:33:16.860Z,99495.31
2023-04-02T00:35:44.209Z,99504.63
2023-04-02T00:38:18.706Z,99498.56
2023-04-02T00:40:46.938Z,99511.16
2023-04-02T00:43:17.039Z,99511.66
2023-04-02T00:45:51.140Z,99514.91
2023-04-02T00:48:26.974Z,99524.56
2023-04-02T00:50:55.420Z,99531.59
2023-04-02T00:53:25.007Z,99528.44
2023-04-02T00:55:52.659Z,99541.63
2023-04-02T00:58:26.199Z,99539.88
2023-04-02T01:00:53.966Z,99540.41
2023-04-02T01:03:35.120Z,99545.56
2023-04-02T01:06:10.792Z,99547.16
2023-04-02T01:08:44.914Z,99550.28
2023-04-02T01:11:18.186Z,99558.69
2023-04-02T01:13:52.506Z,99566.41
2023-04-02T01:16:23.654Z,99565.22
2023-04-02T01:18:53.945Z,99571.94
2023-04-02T01:21:42.222Z,99574.66
2023-04-02T01:24:10.316Z,99580.41
2023-04-02T01:26:45.634Z,99583.84
2023-04-02T01:29:15.074Z,99594.53
2023-04-02T01:31:42.950Z,99605.19
2023-04-02T01:34:13.048Z,99612.00
2023-04-02T01:36:42.219Z,99616.53
2023-04-02T01:39:13.214Z,99618.75
2023-04-02T01:41:43.059Z,99621.28
2023-04-02T01:44:12.075Z,99629.66
2023-04-02T01:46:42.950Z,99637.56
2023-04-02T01:49:12.651Z,99644.50
2023-04-02T01:51:43.048Z,99646.09
2023-04-02T01:54:10.564Z,99655.81
2023-04-02T01:56:37.850Z,99657.69
2023-04-02T01:59:05.910Z,99664.31
2023-04-02T02:01:36.410Z,99665.91
2023-04-02T02:04:05.897Z,99666.53
2023-04-02T02:06:33.275Z,99678.72
2023-04-02T02:09:03.463Z,99679.84
2023-04-02T02:11:31.724Z,99681.75
2023-04-02T02:14:00.279Z,99693.94
2023-04-02T02:16:28.850Z,99701.94
2023-04-02T02:18:57.306Z,99697.75
2023-04-02T02:21:29.789Z,99711.53
2023-04-02T02:23:57.836Z,99709.00
2023-04-02T02:26:27.167Z,99716.78
2023-04-02T02:28:57.544Z,99715.34
2023-04-02T02:31:28.627Z,99717.72
2023-04-02T02:33:58.944Z,99721.75
2023-04-02T02:36:30.701Z,99728.91
2023-04-02T02:38:59.062Z,99731.34
2023-04-02T02:41:31.120Z,99738.38
2023-04-02T02:44:01.885Z,99736.81
2023-04-02T02:46:29.995Z,99740.88
2023-04-02T02:48:58.537Z,99749.72
2023-04-02T02:51:28.342Z,99755.69
2023-04-02T02:53:58.890Z,99762.91
2023-04-02T02:56:26.825Z,99765.22
2023-04-02T02:58:54.538Z,99774.25
2023-04-02T03:01:21.927Z,99780.13
2023-04-02T03:03:50.775Z,99777.63
2023-04-02T03:06:20.589Z,99793.66
2023-04-02T03:08:52.460Z,99793.97
2023-04-02T03:11:26.385Z,99795.97
2023-04-02T03:13:56.794Z,99810.44
2023-04-02T03:16:26.804Z,99813.09
2023-04-02T03:18:56.593Z,99806.25
2023-04-02T03:21:28.817Z,99824.31
2023-04-02T03:23:58.548Z,99828.88
2023-04-02T03:26:31.324Z,99835.19
2023-04-02T03:29:00.832Z,99832.69
2023-04-02T03:31:32.146Z,99841.84
2023-04-02T03:34:00.512Z,99848.69
2023-04-02T03:36:29.615Z,99853.94
2023-04-02T03:39:00.984Z,99858.88
2023-04-02T03:41:32.757Z,99866.41
2023-04-02T03:44:02.197Z,99872.50
2023-04-02T03:46:32.644Z,99878.66
2023-04-02T03:49:01.907Z,99885.03
2023-04-02T03:51:31.601Z,99883.53
2023-04-02T03:53:59.059Z,99892.13
2023-04-02T03:56:29.265Z,99901.53
2023-04-02T03:59:07.262Z,99909.19
2023-04-02T04:01:38.273Z,99906.22
2023-04-02T04:04:07.818Z,99920.81
2023-04-02T04:06:36.124Z,99928.84
2023-04-02T04:09:08.678Z,99926.28
2023-04-02T04:11:37.515Z,99937.91
2023-04-02T04:14:08.348Z,99943.00
2023-04-02T04:16:42.798Z,99949.69
2023-04-02T04:19:18.092Z,99952.66
2023-04-02T04:21:47.024Z,99960.75
2023-04-02T04:24:20.140Z,99965.16
2023-04-02T04:26:49.553Z,99967.25
2023-04-02T04:29:27.055Z,99969.91
2023-04-02T04:31:55.511Z,99976.00
2023-04-02T04:34:25.425Z,99980.50
2023-04-02T04:37:01.537Z,99989.25
2023-04-02T04:39:31.618Z,99985.72
2023-04-02T04:42:01.922Z,99998.03
2023-04-02T04:44:37.844Z,100003.50
2023-04-02T04:47:08.950Z,100013.22
2023-04-02T04:49:40.308Z,100019.78
2023-04-02T04:52:09.996Z,100020.75
2023-04-02T04:54:38.681Z,100029.09
2023-04-02T04:57:07.411Z,100027.97
2023-04-02T04:59:40.848Z,100037.25
2023-04-02T05:02:11.706Z,100048.22
2023-04-02T05:04:40.205Z,100062.00
2023-04-02T05:07:10.500Z,100060.66
2023-04-02T05:09:39.180Z,100068.91
2023-04-02T05:12:10.880Z,100073.13
2023-04-02T05:14:43.189Z,100080.94
2023-04-02T05:17:14.815Z,100080.63
2023-04-02T05:19:44.404Z,100094.88
2023-04-02T05:22:18.465Z,100107.53
2023-04-02T05:24:51.257Z,100105.75
2023-04-02T05:27:26.211Z,100104.44
2023-04-02T05:30:00.131Z,100117.44
2023-04-02T05:32:29.252Z,100116.50
2023-04-02T05:34:57.870Z,100123.84
2023-04-02T05:37:27.237Z,100131.50
2023-04-02T05:39:56.944Z,100135.81
2023-04-02T05:42:25.496Z,100140.81
2023-04-02T05:45:02.855Z,100148.66
2023-04-02T05:47:32.117Z,100157.66
2023-04-02T05:50:13.125Z,100157.16
2023-04-02T05:52:43.640Z,100165.00
2023-04-02T05:55:28.208Z,100167.44
2023-04-02T05:58:17.651Z,100170.16
2023-04-02T06:01:04.157Z,100171.63
2023-04-02T06:03:39.249Z,100181.47
2023-04-02T06:06:14.641Z,100190.16
2023-04-02T06:08:43.564Z,100196.28
2023-04-02T06:11:12.084Z,100202.38
2023-04-02T06:13:39.522Z,100201.41
2023-04-02T06:16:07.305Z,100218.94
2023-04-02T06:18:36.947Z,100215.94
2023-04-02T06:21:05.926Z,100216.44
2023-04-02T06:23:36.920Z,100223.44
2023-04-02T06:26:05.693Z,100228.66
2023-04-02T06:28:36.218Z,100232.94
2023-04-02T06:31:07.437Z,100239.63
2023-04-02T06:33:36.412Z,100248.28
2023-04-02T06:36:04.844Z,100254.56
2023-04-02T06:38:33.078Z,100253.88
2023-04-02T06:41:02.163Z,100259.78
2023-04-02T06:43:35.642Z,100259.78
2023-04-02T06:46:06.917Z,100265.53
2023-04-02T06:48:38.214Z,100270.59
2023-04-02T06:51:07.460Z,100273.38
2023-04-02T06:53:36.850Z,100276.28
2023-04-02T06:56:05.025Z,100291.09
2023-04-02T06:58:32.737Z,100292.22
2023-04-02T07:01:00.113Z,100303.31
2023-04-02T07:03:28.501Z,100297.69
2023-04-02T07:05:57.640Z,100300.44
2023-04-02T07:08:25.246Z,100311.72
2023-04-02T07:10:52.576Z,100322.78
2023-04-02T07:13:20.959Z,100323.59
2023-04-02T07:15:49.622Z,100331.13
2023-04-02T07:18:22.814Z,100319.53
2023-04-02T07:20:52.043Z,100328.03
2023-04-02T07:23:21.270Z,100334.13
2023-04-02T07:25:48.901Z,100330.78
2023-04-02T07:28:16.720Z,100332.16
2023-04-02T07:30:44.114Z,100343.09
2023-04-02T07:33:13.710Z,100351.41
2023-04-02T07:35:41.396Z,100360.44
2023-04-02T07:38:08.870Z,100353.31
2023-04-02T07:40:37.485Z,100372.09
2023-04-02T07:43:05.306Z,100372.88
2023-04-02T07:45:33.030Z,100381.66
2023-04-02T07:48:04.997Z,100388.03
2023-04-02T07:50:32.315Z,100383.44
2023-04-02T07:52:59.680Z,100382.25
2023-04-02T07:55:26.965Z,100393.88
2023-04-02T07:57:56.225Z,100393.88
2023-04-02T08:00:23.925Z,100393.53
2023-04-02T08:02:51.547Z,100397.81
2023-04-02T08:05:19.376Z,100409.31
2023-04-02T08:07:53.006Z,100415.00
2023-04-02T08:10:20.609Z,100422.44
2023-04-02T08:12:47.873Z,100425.75
2023-04-02T08:15:16.920Z,100426.16
2023-04-02T08:17:44.472Z,100431.66
2023-04-02T08:20:15.200Z,100429.91
2023-04-02T08:22:42.454Z,100442.69
2023-04-02T08:25:10.495Z,100444.91
2023-04-02T08:27:38.121Z,100444.69
2023-04-02T08:30:06.758Z,100449.00
2023-04-02T08:32:35.586Z,100454.38
2023-04-02T08:35:02.975Z,100463.69
2023-04-02T08:37:30.454Z,100464.97
2023-04-02T08:39:57.726Z,100468.09
2023-04-02T08:42:30.451Z,100474.09
2023-04-02T08:45:24.390Z,100478.47
2023-04-02T08:47:56.016Z,100490.50
2023-04-02T08:50:29.290Z,100491.78
2023-04-02T08:52:57.280Z,100491.16
2023-04-02T08:55:30.010Z,100497.69
2023-04-02T08:58:02.635Z,100491.47
2023-04-02T09:00:35.625Z,100501.78
2023-04-02T09:03:09.258Z,100500.88
2023-04-02T09:05:40.004Z,100510.03
2023-04-02T09:08:17.288Z,100517.81
2023-04-02T09:10:50.574Z,100515.09
2023-04-02T09:13:22.274Z,100523.47
2023-04-02T09:15:50.501Z,100519.03
2023-04-02T09:18:20.113Z,100529.34
2023-04-02T09:20:49.257Z,100527.38
2023-04-02T09:23:17.957Z,100532.75
2023-04-02T09:25:51.197Z,100534.13
2023-04-02T09:28:28.743Z,100552.34
2023-04-02T09:31:07.114Z,100546.97
2023-04-02T09:33:46.846Z,100556.06
2023-04-02T09:36:27.045Z,100551.88
2023-04-02T09:39:02.019Z,100563.91
2023-04-02T09:41:30.110Z,100576.06
2023-04-02T09:44:13.464Z,100586.53
2023-04-02T09:46:48.278Z,100588.22
2023-04-02T09:49:18.877Z,100588.25
2023-04-02T09:51:46.187Z,100595.28
2023-04-02T09:54:16.867Z,100600.00
2023-04-02T09:57:00.736Z,100602.59
2023-04-02T09:59:28.076Z,100608.09
2023-04-02T10:02:00.613Z,100611.66
2023-04-02T10:04:44.048Z,100611.63
2023-04-02T10:07:30.728Z,100615.94
2023-04-02T10:09:58.965Z,100626.50
2023-04-02T10:12:27.593Z,100628.31
2023-04-02T10:14:57.920Z,100626.53
2023-04-02T10:17:28.623Z,100636.41
2023-04-02T10:19:59.671Z,100634.13
2023-04-02T10:22:29.110Z,100642.34
2023-04-02T10:24:56.449Z,100636.81
2023-04-02T10:27:29.462Z,100643.91
2023-04-02T10:30:03.932Z,100650.72
2023-04-02T10:32:33.240Z,100652.38
2023-04-02T10:35:03.236Z,100659.28
2023-04-02T10:37:49.442Z,100662.19
2023-04-02T10:40:20.142Z,100661.34
2023-04-02T10:42:53.654Z,100670.25
2023-04-02T10:45:24.778Z,100664.59
2023-04-02T10:47:54.918Z,100666.78
2023-04-02T10:50:31.183Z,100676.69
2023-04-02T10:53:03.412Z,100675.72
2023-04-02T10:55:33.012Z,100684.16
2023-04-02T10:58:04.632Z,100682.00
2023-04-02T11:00:34.470Z,100684.72
2023-04-02T11:03:06.061Z,100688.22
2023-04-02T11:05:40.331Z,100698.16
2023-04-02T11:08:12.749Z,100693.69
2023-04-02T11:10:44.031Z,100700.84
2023-04-02T11:13:16.377Z,100704.78
2023-04-02T11:15:43.920Z,100711.06
2023-04-02T11:18:22.751Z,100713.03
2023-04-02T11:20:58.706Z,100709.16
2023-04-02T11:23:28.290Z,100718.94
2023-04-02T11:26:10.500Z,100720.00
2023-04-02T11:28:37.782Z,100724.81
2023-04-02T11:31:05.200Z,100732.84
2023-04-02T11:33:44.771Z,100732.69
2023-04-02T11:36:31.448Z,100729.34
2023-04-02T11:39:10.833Z,100732.59
2023-04-02T11:41:59.092Z,100741.38
2023-04-02T11:44:26.403Z,100741.25
2023-04-02T11:46:53.727Z,100750.63
2023-04-02T11:49:54.176Z,100752.00
2023-04-02T11:52:23.484Z,100763.00
2023-04-02T11:55:02.833Z,100749.22
2023-04-02T11:57:38.408Z,100754.66
2023-04-02T12:00:18.436Z,100762.28
2023-04-02T12:02:54.769Z,100762.09
2023-04-02T12:05:28.039Z,100760.00
2023-04-02T12:08:05.226Z,100752.50
2023-04-02T12:10:35.947Z,100759.22
2023-04-02T12:13:03.796Z,100770.81
2023-04-02T12:15:43.172Z,100764.53
2023-04-02T12:18:18.245Z,100767.88
2023-04-02T12:20:50.933Z,100767.31
2023-04-02T12:23:20.304Z,100773.81
2023-04-02T12:28:48.549Z,100785.25
2023-04-02T12:31:17.915Z,100783.66
2023-04-02T12:33:53.253Z,100790.38
2023-04-02T12:36:22.265Z,100791.25
2023-04-02T12:38:52.057Z,100782.53
2023-04-02T12:41:27.044Z,100786.53
2023-04-02T12:46:52.045Z,100789.78
2023-04-02T12:49:26.487Z,100789.00
2023-04-02T12:51:55.877Z,100788.28
2023-04-02T12:54:34.260Z,100795.97
2023-04-02T12:57:18.037Z,100802.00
2023-04-02T12:59:48.144Z,100801.34
2023-04-02T13:02:20.806Z,100800.28
2023-04-02T13:04:48.809Z,100811.34
2023-04-02T13:07:17.778Z,100821.50
2023-04-02T13:09:46.404Z,100815.09
2023-04-02T13:12:25.245Z,100814.25
2023-04-02T13:14:54.996Z,100825.66
2023-04-02T13:17:38.326Z,100823.84
2023-04-02T13:20:24.441Z,100830.84
2023-04-02T13:22:51.768Z,100832.13
2023-04-02T13:25:22.588Z,100837.75
2023-04-02T13:27:49.865Z,100836.44
2023-04-02T13:30:22.589Z,100840.66
2023-04-02T13:32:50.397Z,100834.66
2023-04-02T13:35:17.729Z,100848.00
2023-04-02T13:37:45.070Z,100851.19
2023-04-02T13:40:14.119Z,100844.28
2023-04-02T13:42:42.483Z,100848.69
2023-04-02T13:45:17.693Z,100855.91
2023-04-02T13:47:46.331Z,100852.34
2023-04-02T13:50:18.551Z,100857.97
2023-04-02T13:52:46.454Z,100867.47
2023-04-02T13:55:15.232Z,100862.34
2023-04-02T13:57:42.566Z,100872.50
2023-04-02T14:00:10.777Z,100879.34
2023-04-02T14:02:43.361Z,100886.44
2023-04-02T14:05:18.638Z,100881.78
2023-04-02T14:07:53.055Z,100891.59
2023-04-02T14:10:23.449Z,100894.00
2023-04-02T14:12:59.475Z,100909.84
2023-04-02T14:15:34.736Z,100901.22
2023-04-02T14:18:14.836Z,100895.34
2023-04-02T14:20:51.970Z,100901.38
2023-04-02T14:23:26.680Z,100913.25
2023-04-02T14:25:58.310Z,100908.69
2023-04-02T14:28:31.170Z,100915.28
2023-04-02T14:31:03.069Z,100916.13
2023-04-02T14:33:36.690Z,100919.72
2023-04-02T14:36:13.440Z,100928.69
2023-04-02T14:38:45.030Z,100927.41
2023-04-02T14:41:16.500Z,100931.78
2023-04-02T14:43:46.838Z,100931.16
2023-04-02T14:46:17.584Z,100925.69
2023-04-02T14:48:50.246Z,100940.03
2023-04-02T14:51:24.454Z,100936.19
2023-04-02T14:53:56.393Z,100933.88
2023-04-02T14:56:24.966Z,100936.25
2023-04-02T14:58:55.559Z,100941.78
2023-04-02T15:01:24.122Z,100942.16
2023-04-02T15:03:55.497Z,100940.31
2023-04-02T15:06:25.491Z,100947.25
2023-04-02T15:09:08.489Z,100950.81
2023-04-02T15:11:38.102Z,100944.34
2023-04-02T15:14:07.859Z,100940.53
2023-04-02T15:16:36.417Z,100944.06
2023-04-02T15:19:05.069Z,100934.13
2023-04-02T15:21:55.835Z,100944.78
2023-04-02T15:24:31.633Z,100950.25
2023-04-02T15:27:09.347Z,100952.53
2023-04-02T15:29:44.662Z,100958.75
2023-04-02T15:32:18.376Z,100953.44
2023-04-02T15:34:51.420Z,100960.63
2023-04-02T15:37:24.367Z,100955.44
2023-04-02T15:40:00.807Z,100964.50
2023-04-02T15:42:30.156Z,100975.69
2023-04-02T15:45:06.229Z,100981.09
2023-04-02T15:47:38.287Z,100973.38
2023-04-02T15:50:15.516Z,100975.94
2023-04-02T15:52:52.526Z,100983.16
2023-04-02T15:55:23.556Z,100976.56
2023-04-02T15:58:05.516Z,100983.13
2023-04-02T16:00:34.267Z,100985.56
2023-04-02T16:03:12.735Z,100983.78
2023-04-02T16:05:43.496Z,100986.41
2023-04-02T16:08:20.330Z,100994.41
2023-04-02T16:10:47.851Z,100995.34
2023-04-02T16:13:18.640Z,101002.03
2023-04-02T16:15:48.691Z,101007.72
2023-04-02T16:18:18.980Z,101004.06
2023-04-02T16:20:48.087Z,101005.41
2023-04-02T16:23:18.385Z,101002.81
2023-04-02T16:25:53.634Z,101010.34
2023-04-02T16:28:24.840Z,101005.47
2023-04-02T16:30:56.539Z,101015.75
2023-04-02T16:33:29.122Z,101014.78
2023-04-02T16:36:01.789Z,101019.41
2023-04-02T16:38:38.822Z,101027.63
2023-04-02T16:41:10.511Z,101032.09
2023-04-02T16:43:44.585Z,101035.16
2023-04-02T16:46:28.177Z,101033.75
2023-04-02T16:49:03.888Z,101036.69
2023-04-02T16:51:38.086Z,101043.69
2023-04-02T16:54:11.308Z,101041.22
2023-04-02T16:56:46.687Z,101044.47
2023-04-02T16:59:18.956Z,101047.13
2023-04-02T17:01:51.572Z,101047.94
2023-04-02T17:04:26.922Z,101051.84
2023-04-02T17:06:58.161Z,101062.25
2023-04-02T17:09:32.062Z,101053.56
2023-04-02T17:12:04.440Z,101062.69
2023-04-02T17:14:35.823Z,101072.16
2023-04-02T17:17:07.501Z,101060.72
2023-04-02T17:19:35.604Z,101070.09
2023-04-02T17:22:07.494Z,101071.63
2023-04-02T17:24:39.469Z,101069.91
2023-04-02T17:27:12.892Z,101076.66
2023-04-02T17:29:42.676Z,101070.97
2023-04-02T17:32:15.506Z,101065.31
2023-04-02T17:34:42.759Z,101073.97
2023-04-02T17:37:16.549Z,101075.13
2023-04-02T17:39:50.388Z,101084.69
2023-04-02T17:42:21.707Z,101088.31
2023-04-02T17:44:54.684Z,101089.13
2023-04-02T17:47:23.333Z,101078.78
2023-04-02T17:50:00.713Z,101090.66
2023-04-02T17:52:30.804Z,101087.94
2023-04-02T17:55:04.370Z,101086.78
2023-04-02T17:57:48.267Z,101090.78
2023-04-02T18:00:30.385Z,101094.38
2023-04-02T18:03:10.338Z,101100.69
2023-04-02T18:05:39.681Z,101103.06
2023-04-02T18:08:14.391Z,101098.88
2023-04-02T18:10:47.535Z,101112.53
2023-04-02T18:13:22.144Z,101107.78
2023-04-02T18:15:56.333Z,101121.91
2023-04-02T18:18:36.912Z,101121.47
2023-04-02T18:21:07.796Z,101127.97
2023-04-02T18:23:39.817Z,101131.16
2023-04-02T18:26:13.413Z,101129.59
2023-04-02T18:28:49.320Z,101129.59
2023-04-02T18:31:20.492Z,101135.38
2023-04-02T18:33:58.187Z,101134.91
2023-04-02T18:36:27.922Z,101142.59
2023-04-02T18:39:00.125Z,101147.28
2023-04-02T18:41:38.476Z,101152.38
2023-04-02T18:44:14.529Z,101155.66
2023-04-02T18:46:45.904Z,101151.84
2023-04-02T18:49:20.791Z,101153.19
2023-04-02T18:51:50.020Z,101159.13
2023-04-02T18:54:19.271Z,101162.94
2023-04-02T18:56:48.185Z,101167.16
2023-04-02T18:59:26.555Z,101170.47
2023-04-02T19:01:55.501Z,101172.09
2023-04-02T19:04:26.222Z,101176.97
2023-04-02T19:06:55.553Z,101178.41
2023-04-02T19:09:24.261Z,101188.81
2023-04-02T19:11:53.057Z,101186.00
2023-04-02T19:14:21.249Z,101186.28
2023-04-02T19:16:59.722Z,101191.44
2023-04-02T19:19:27.897Z,101189.84
2023-04-02T19:22:02.478Z,101200.13
2023-04-02T19:24:36.989Z,101191.91
2023-04-02T19:27:08.020Z,101200.28
2023-04-02T19:29:43.034Z,101197.44
2023-04-02T19:32:15.695Z,101200.16
2023-04-02T19:34:46.376Z,101202.19
2023-04-02T19:37:16.765Z,101207.75
2023-04-02T19:39:52.737Z,101210.53
2023-04-02T19:42:24.239Z,101207.81
2023-04-02T19:44:52.738Z,101210.53
2023-04-02T19:47:21.011Z,101212.31
2023-04-02T19:49:48.317Z,101218.94
2023-04-02T19:52:15.700Z,101212.94
2023-04-02T19:54:42.975Z,101214.59
2023-04-02T19:57:13.112Z,101220.75
2023-04-02T19:59:41.746Z,101222.25
2023-04-02T20:02:10.335Z,101220.16
2023-04-02T20:04:37.792Z,101220.09
2023-04-02T20:07:05.559Z,101232.97
2023-04-02T20:09:32.824Z,101224.56
2023-04-02T20:12:00.155Z,101216.56
2023-04-02T20:14:27.471Z,101220.22
2023-04-02T20:16:56.231Z,101224.81
2023-04-02T20:19:26.380Z,101232.66
2023-04-02T20:21:53.653Z,101230.97
2023-04-02T20:24:20.934Z,101231.94
2023-04-02T20:26:48.263Z,101229.25
2023-04-02T20:29:15.678Z,101235.66
2023-04-02T20:31:42.943Z,101227.59
2023-04-02T20:34:11.955Z,101236.06
2023-04-02T20:36:39.441Z,101233.38
2023-04-02T20:39:09.082Z,101246.94
2023-04-02T20:41:36.477Z,101246.25
2023-04-02T20:44:03.919Z,101261.69
2023-04-02T21:01:10.600Z,101269.06
2023-04-02T21:03:39.717Z,101269.56
2023-04-02T21:06:07.675Z,101272.22
2023-04-02T21:08:35.154Z,101267.22
2023-04-02T21:11:03.408Z,101271.94
2023-04-02T21:13:31.344Z,101270.00
2023-04-02T21:15:58.953Z,101270.28
2023-04-02T21:18:27.564Z,101270.38
2023-04-02T21:20:59.601Z,101276.13
2023-04-02T21:23:27.286Z,101271.91
2023-04-02T21:25:58.439Z,101287.44
2023-04-02T21:28:25.992Z,101282.97
2023-04-02T21:30:53.431Z,101284.97
2023-04-02T21:33:20.766Z,101278.63
2023-04-02T21:35:50.547Z,101283.41
2023-04-02T21:38:17.855Z,101289.13
2023-04-02T21:40:45.269Z,101282.50
2023-04-02T21:43:12.565Z,101287.59
2023-04-02T21:45:39.846Z,101282.31
2023-04-02T21:48:07.261Z,101285.75
2023-04-02T21:50:34.726Z,101289.31
2023-04-02T21:53:03.893Z,101287.44
2023-04-02T21:55:31.162Z,101294.59
2023-04-02T21:57:58.422Z,101300.31
2023-04-02T22:00:26.444Z,101303.34
2023-04-02T22:02:53.758Z,101301.47
2023-04-02T22:05:21.128Z,101296.63
2023-04-02T22:07:48.418Z,101303.44
2023-04-02T22:10:17.467Z,101303.56
2023-04-02T22:12:44.757Z,101313.75
2023-04-02T22:15:12.413Z,101311.31
2023-04-02T22:17:39.709Z,101315.78
2023-04-02T22:20:07.518Z,101317.25
2023-04-02T22:22:34.794Z,101322.13
2023-04-02T22:25:03.063Z,101318.84
2023-04-02T22:27:31.667Z,101324.09
2023-04-02T22:29:58.918Z,101322.69
2023-04-02T22:32:26.245Z,101322.38
2023-04-02T22:34:53.881Z,101329.47
2023-04-02T22:37:21.158Z,101326.38
2023-04-02T22:39:48.436Z,101331.00
2023-04-02T22:42:15.695Z,101332.53
2023-04-02T22:44:44.273Z,101327.13
2023-04-02T22:47:11.574Z,101336.66
2023-04-02T22:49:38.828Z,101335.47
2023-04-02T22:52:06.851Z,101345.19
2023-04-02T22:54:34.100Z,101355.56
2023-04-02T22:57:01.619Z,101347.13
2023-04-02T22:59:28.911Z,101345.69
2023-04-02T23:01:57.539Z,101348.88
2023-04-02T23:04:24.859Z,101355.94
2023-04-02T23:06:52.903Z,101359.41
2023-04-02T23:09:20.160Z,101359.88
2023-04-02T23:11:47.413Z,101362.94
2023-04-02T23:14:14.713Z,101367.09
2023-04-02T23:16:41.990Z,101365.72
2023-04-02T23:19:10.727Z,101363.38
2023-04-02T23:21:38.061Z,101361.63
2023-04-02T23:24:05.421Z,101365.59
2023-04-02T23:26:32.942Z,101365.34
2023-04-02T23:29:02.359Z,101373.53
2023-04-02T23:31:29.862Z,101375.78
2023-04-02T23:33:57.490Z,101371.03
2023-04-02T23:36:26.959Z,101363.19
2023-04-02T23:38:55.422Z,101370.94
2023-04-02T23:41:23.698Z,101374.56
2023-04-02T23:43:51.089Z,101372.00
2023-04-02T23:46:18.412Z,101375.66
2023-04-02T23:48:46.631Z,101377.03
2023-04-02T23:51:14.045Z,101373.53
2023-04-02T23:53:43.200Z,101375.84
2023-04-02T23:56:10.579Z,101377.50
2023-04-02T23:58:37.922Z,101385.34
